sensor_id;sensor_type;location;lat;lon;timestamp;P1;durP1;ratioP1;P2;durP2;ratioP2
36303;SDS011;22335;49.800;8.596;2023-03-13T00:01:26;18.77;;;8.10;;
36303;SDS011;22335;49.800;8.596;2023-03-13T00:08:14;17.05;;;7.60;;
36303;SDS011;22335;49.800;8.596;2023-03-13T00:14:58;16.95;;;7.75;;
36303;SDS011;22335;49.800;8.596;2023-03-13T00:21:42;17.50;;;7.95;;
36303;SDS011;22335;49.800;8.596;2023-03-13T00:28:28;15.65;;;8.18;;
36303;SDS011;22335;49.800;8.596;2023-03-13T00:35:15;15.15;;;8.27;;
36303;SDS011;22335;49.800;8.596;2023-03-13T00:41:58;12.88;;;7.28;;
36303;SDS011;22335;49.800;8.596;2023-03-13T00:48:45;15.93;;;7.50;;
36303;SDS011;22335;49.800;8.596;2023-03-13T00:55:29;16.65;;;8.23;;
36303;SDS011;22335;49.800;8.596;2023-03-13T01:02:12;13.40;;;7.50;;
36303;SDS011;22335;49.800;8.596;2023-03-13T01:08:57;15.75;;;7.78;;
36303;SDS011;22335;49.800;8.596;2023-03-13T01:15:42;12.00;;;7.70;;
36303;SDS011;22335;49.800;8.596;2023-03-13T01:22:25;12.13;;;7.60;;
36303;SDS011;22335;49.800;8.596;2023-03-13T01:29:11;16.83;;;8.30;;
36303;SDS011;22335;49.800;8.596;2023-03-13T01:35:59;15.18;;;7.80;;
36303;SDS011;22335;49.800;8.596;2023-03-13T01:42:47;16.40;;;7.05;;
36303;SDS011;22335;49.800;8.596;2023-03-13T01:49:34;13.98;;;7.47;;
36303;SDS011;22335;49.800;8.596;2023-03-13T01:56:25;14.60;;;6.53;;
36303;SDS011;22335;49.800;8.596;2023-03-13T02:03:16;15.10;;;6.78;;
36303;SDS011;22335;49.800;8.596;2023-03-13T02:10:05;13.80;;;6.40;;
36303;SDS011;22335;49.800;8.596;2023-03-13T02:16:51;13.20;;;6.72;;
36303;SDS011;22335;49.800;8.596;2023-03-13T02:23:38;14.32;;;8.63;;
36303;SDS011;22335;49.800;8.596;2023-03-13T02:30:33;17.87;;;8.47;;
36303;SDS011;22335;49.800;8.596;2023-03-13T02:37:17;12.43;;;8.20;;
36303;SDS011;22335;49.800;8.596;2023-03-13T02:44:03;14.85;;;8.68;;
36303;SDS011;22335;49.800;8.596;2023-03-13T02:50:48;14.27;;;8.32;;
36303;SDS011;22335;49.800;8.596;2023-03-13T02:57:31;12.13;;;8.13;;
36303;SDS011;22335;49.800;8.596;2023-03-13T03:04:16;12.88;;;8.13;;
36303;SDS011;22335;49.800;8.596;2023-03-13T03:11:07;13.77;;;8.70;;
36303;SDS011;22335;49.800;8.596;2023-03-13T03:17:51;14.68;;;8.27;;
36303;SDS011;22335;49.800;8.596;2023-03-13T03:24:34;15.65;;;8.43;;
36303;SDS011;22335;49.800;8.596;2023-03-13T03:31:19;12.70;;;8.18;;
36303;SDS011;22335;49.800;8.596;2023-03-13T03:38:03;10.40;;;7.35;;
36303;SDS011;22335;49.800;8.596;2023-03-13T03:44:49;12.57;;;7.93;;
36303;SDS011;22335;49.800;8.596;2023-03-13T04:06:36;14.30;;;7.18;;
36303;SDS011;22335;49.800;8.596;2023-03-13T04:20:05;11.43;;;8.40;;
36303;SDS011;22335;49.800;8.596;2023-03-13T04:26:52;7.95;;;5.20;;
36303;SDS011;22335;49.800;8.596;2023-03-13T04:33:36;7.40;;;5.20;;
36303;SDS011;22335;49.800;8.596;2023-03-13T04:40:29;10.60;;;4.72;;
36303;SDS011;22335;49.800;8.596;2023-03-13T04:47:33;9.15;;;4.78;;
36303;SDS011;22335;49.800;8.596;2023-03-13T04:54:36;7.68;;;4.97;;
36303;SDS011;22335;49.800;8.596;2023-03-13T05:01:25;5.90;;;3.92;;
36303;SDS011;22335;49.800;8.596;2023-03-13T05:08:28;7.03;;;4.00;;
36303;SDS011;22335;49.800;8.596;2023-03-13T05:15:24;6.53;;;4.05;;
36303;SDS011;22335;49.800;8.596;2023-03-13T05:22:20;8.15;;;4.13;;
36303;SDS011;22335;49.800;8.596;2023-03-13T05:29:24;10.90;;;4.22;;
36303;SDS011;22335;49.800;8.596;2023-03-13T05:36:25;7.03;;;4.32;;
36303;SDS011;22335;49.800;8.596;2023-03-13T05:43:29;5.32;;;4.03;;
36303;SDS011;22335;49.800;8.596;2023-03-13T05:50:41;5.22;;;4.25;;
36303;SDS011;22335;49.800;8.596;2023-03-13T05:57:43;4.55;;;4.03;;
36303;SDS011;22335;49.800;8.596;2023-03-13T06:04:46;5.03;;;4.47;;
36303;SDS011;22335;49.800;8.596;2023-03-13T06:11:31;4.68;;;3.88;;
36303;SDS011;22335;49.800;8.596;2023-03-13T06:18:17;3.58;;;3.25;;
36303;SDS011;22335;49.800;8.596;2023-03-13T06:25:01;6.53;;;4.72;;
36303;SDS011;22335;49.800;8.596;2023-03-13T06:31:46;8.50;;;4.63;;
36303;SDS011;22335;49.800;8.596;2023-03-13T06:38:29;6.78;;;6.07;;
36303;SDS011;22335;49.800;8.596;2023-03-13T06:45:13;4.97;;;4.55;;
36303;SDS011;22335;49.800;8.596;2023-03-13T06:51:58;7.90;;;4.97;;
36303;SDS011;22335;49.800;8.596;2023-03-13T06:58:41;6.40;;;5.90;;
36303;SDS011;22335;49.800;8.596;2023-03-13T07:05:27;5.63;;;5.13;;
36303;SDS011;22335;49.800;8.596;2023-03-13T07:12:12;5.50;;;5.10;;
36303;SDS011;22335;49.800;8.596;2023-03-13T07:18:58;5.70;;;5.35;;
36303;SDS011;22335;49.800;8.596;2023-03-13T07:25:42;5.57;;;5.28;;
36303;SDS011;22335;49.800;8.596;2023-03-13T07:32:31;5.60;;;5.20;;
36303;SDS011;22335;49.800;8.596;2023-03-13T07:39:14;4.80;;;4.40;;
36303;SDS011;22335;49.800;8.596;2023-03-13T07:45:58;5.05;;;4.65;;
36303;SDS011;22335;49.800;8.596;2023-03-13T07:52:45;6.60;;;5.10;;
36303;SDS011;22335;49.800;8.596;2023-03-13T07:59:31;4.70;;;4.40;;
36303;SDS011;22335;49.800;8.596;2023-03-13T08:06:15;4.50;;;4.20;;
36303;SDS011;22335;49.800;8.596;2023-03-13T08:13:02;5.60;;;5.20;;
36303;SDS011;22335;49.800;8.596;2023-03-13T08:19:46;5.80;;;5.40;;
36303;SDS011;22335;49.800;8.596;2023-03-13T08:26:29;5.53;;;5.13;;
36303;SDS011;22335;49.800;8.596;2023-03-13T08:33:15;4.97;;;4.65;;
36303;SDS011;22335;49.800;8.596;2023-03-13T08:39:59;4.90;;;4.60;;
36303;SDS011;22335;49.800;8.596;2023-03-13T08:46:42;5.05;;;4.55;;
36303;SDS011;22335;49.800;8.596;2023-03-13T08:53:27;5.10;;;4.80;;
36303;SDS011;22335;49.800;8.596;2023-03-13T09:00:11;5.03;;;4.72;;
36303;SDS011;22335;49.800;8.596;2023-03-13T09:06:56;4.95;;;4.55;;
36303;SDS011;22335;49.800;8.596;2023-03-13T09:13:41;5.32;;;4.93;;
36303;SDS011;22335;49.800;8.596;2023-03-13T09:20:27;5.25;;;4.95;;
36303;SDS011;22335;49.800;8.596;2023-03-13T09:27:10;5.45;;;4.80;;
36303;SDS011;22335;49.800;8.596;2023-03-13T09:33:55;6.40;;;4.95;;
36303;SDS011;22335;49.800;8.596;2023-03-13T09:40:40;5.43;;;5.03;;
36303;SDS011;22335;49.800;8.596;2023-03-13T09:47:41;5.32;;;5.00;;
36303;SDS011;22335;49.800;8.596;2023-03-13T09:54:32;4.72;;;4.32;;
36303;SDS011;22335;49.800;8.596;2023-03-13T10:01:22;5.50;;;5.20;;
36303;SDS011;22335;49.800;8.596;2023-03-13T10:08:12;4.70;;;4.40;;
36303;SDS011;22335;49.800;8.596;2023-03-13T10:15:03;5.22;;;4.70;;
36303;SDS011;22335;49.800;8.596;2023-03-13T10:22:26;4.63;;;4.33;;
36303;SDS011;22335;49.800;8.596;2023-03-13T10:36:08;5.55;;;5.05;;
36303;SDS011;22335;49.800;8.596;2023-03-13T10:42:58;6.03;;;5.40;;
36303;SDS011;22335;49.800;8.596;2023-03-13T10:49:46;6.15;;;5.55;;
36303;SDS011;22335;49.800;8.596;2023-03-13T10:56:34;6.13;;;5.72;;
36303;SDS011;22335;49.800;8.596;2023-03-13T11:03:18;6.95;;;5.32;;
36303;SDS011;22335;49.800;8.596;2023-03-13T11:10:15;5.45;;;5.05;;
36303;SDS011;22335;49.800;8.596;2023-03-13T11:17:05;5.80;;;5.30;;
36303;SDS011;22335;49.800;8.596;2023-03-13T11:24:04;5.47;;;5.15;;
36303;SDS011;22335;49.800;8.596;2023-03-13T11:30:59;5.32;;;4.93;;
36303;SDS011;22335;49.800;8.596;2023-03-13T11:37:52;6.10;;;5.50;;
36303;SDS011;22335;49.800;8.596;2023-03-13T11:44:42;5.40;;;4.90;;
36303;SDS011;22335;49.800;8.596;2023-03-13T11:51:34;5.60;;;5.00;;
36303;SDS011;22335;49.800;8.596;2023-03-13T11:58:39;5.53;;;5.05;;
36303;SDS011;22335;49.800;8.596;2023-03-13T12:05:47;5.13;;;4.53;;
36303;SDS011;22335;49.800;8.596;2023-03-13T12:12:36;5.72;;;5.32;;
36303;SDS011;22335;49.800;8.596;2023-03-13T12:19:31;5.20;;;4.90;;
36303;SDS011;22335;49.800;8.596;2023-03-13T12:26:25;6.57;;;5.00;;
36303;SDS011;22335;49.800;8.596;2023-03-13T12:33:18;5.65;;;5.15;;
36303;SDS011;22335;49.800;8.596;2023-03-13T12:40:11;5.10;;;4.80;;
36303;SDS011;22335;49.800;8.596;2023-03-13T12:47:06;5.50;;;5.00;;
36303;SDS011;22335;49.800;8.596;2023-03-13T12:54:01;6.82;;;5.65;;
36303;SDS011;22335;49.800;8.596;2023-03-13T13:01:00;5.00;;;4.60;;
36303;SDS011;22335;49.800;8.596;2023-03-13T13:07:51;5.35;;;5.05;;
36303;SDS011;22335;49.800;8.596;2023-03-13T13:21:43;5.47;;;5.00;;
36303;SDS011;22335;49.800;8.596;2023-03-13T13:28:33;5.03;;;4.63;;
36303;SDS011;22335;49.800;8.596;2023-03-13T13:35:18;4.43;;;4.10;;
36303;SDS011;22335;49.800;8.596;2023-03-13T14:03:25;4.60;;;4.25;;
36303;SDS011;22335;49.800;8.596;2023-03-13T14:10:18;4.45;;;4.20;;
36303;SDS011;22335;49.800;8.596;2023-03-13T14:17:12;4.13;;;3.72;;
36303;SDS011;22335;49.800;8.596;2023-03-13T14:23:57;4.20;;;3.80;;
36303;SDS011;22335;49.800;8.596;2023-03-13T14:30:41;4.40;;;4.00;;
36303;SDS011;22335;49.800;8.596;2023-03-13T14:37:34;4.13;;;3.88;;
36303;SDS011;22335;49.800;8.596;2023-03-13T14:44:21;4.60;;;3.85;;
36303;SDS011;22335;49.800;8.596;2023-03-13T14:51:07;4.03;;;3.53;;
36303;SDS011;22335;49.800;8.596;2023-03-13T14:58:00;4.18;;;3.67;;
36303;SDS011;22335;49.800;8.596;2023-03-13T15:04:52;4.60;;;3.53;;
36303;SDS011;22335;49.800;8.596;2023-03-13T15:11:40;6.38;;;4.22;;
36303;SDS011;22335;49.800;8.596;2023-03-13T15:18:25;4.00;;;3.70;;
36303;SDS011;22335;49.800;8.596;2023-03-13T15:25:15;3.88;;;3.60;;
36303;SDS011;22335;49.800;8.596;2023-03-13T15:32:01;4.05;;;3.75;;
36303;SDS011;22335;49.800;8.596;2023-03-13T15:38:44;3.90;;;3.60;;
36303;SDS011;22335;49.800;8.596;2023-03-13T15:45:29;11.90;;;3.72;;
36303;SDS011;22335;49.800;8.596;2023-03-13T15:52:13;18.10;;;6.93;;
36303;SDS011;22335;49.800;8.596;2023-03-13T15:59:00;8.15;;;4.68;;
36303;SDS011;22335;49.800;8.596;2023-03-13T16:05:48;8.05;;;5.03;;
36303;SDS011;22335;49.800;8.596;2023-03-13T16:12:32;4.50;;;4.10;;
36303;SDS011;22335;49.800;8.596;2023-03-13T16:19:15;7.30;;;4.40;;
36303;SDS011;22335;49.800;8.596;2023-03-13T16:26:00;7.22;;;4.97;;
36303;SDS011;22335;49.800;8.596;2023-03-13T16:32:44;7.55;;;4.63;;
36303;SDS011;22335;49.800;8.596;2023-03-13T16:39:27;4.88;;;4.05;;
36303;SDS011;22335;49.800;8.596;2023-03-13T16:46:13;4.43;;;3.78;;
36303;SDS011;22335;49.800;8.596;2023-03-13T16:52:59;4.30;;;3.83;;
36303;SDS011;22335;49.800;8.596;2023-03-13T16:59:43;4.80;;;3.70;;
36303;SDS011;22335;49.800;8.596;2023-03-13T17:06:29;3.90;;;3.50;;
36303;SDS011;22335;49.800;8.596;2023-03-13T17:13:16;4.30;;;3.90;;
36303;SDS011;22335;49.800;8.596;2023-03-13T17:20:00;4.22;;;3.92;;
36303;SDS011;22335;49.800;8.596;2023-03-13T17:26:47;5.57;;;4.00;;
36303;SDS011;22335;49.800;8.596;2023-03-13T17:33:30;4.55;;;4.10;;
36303;SDS011;22335;49.800;8.596;2023-03-13T17:40:15;5.07;;;4.25;;
36303;SDS011;22335;49.800;8.596;2023-03-13T17:47:02;5.32;;;4.15;;
36303;SDS011;22335;49.800;8.596;2023-03-13T17:53:47;5.18;;;4.68;;
36303;SDS011;22335;49.800;8.596;2023-03-13T18:00:31;4.60;;;4.22;;
36303;SDS011;22335;49.800;8.596;2023-03-13T18:07:20;5.20;;;4.32;;
36303;SDS011;22335;49.800;8.596;2023-03-13T18:14:06;5.03;;;4.63;;
36303;SDS011;22335;49.800;8.596;2023-03-13T18:20:50;4.88;;;4.03;;
36303;SDS011;22335;49.800;8.596;2023-03-13T18:27:38;6.95;;;4.50;;
36303;SDS011;22335;49.800;8.596;2023-03-13T18:34:22;4.53;;;4.15;;
36303;SDS011;22335;49.800;8.596;2023-03-13T18:41:05;6.28;;;4.13;;
36303;SDS011;22335;49.800;8.596;2023-03-13T18:47:51;4.35;;;3.95;;
36303;SDS011;22335;49.800;8.596;2023-03-13T18:54:35;4.15;;;3.85;;
36303;SDS011;22335;49.800;8.596;2023-03-13T19:01:20;4.38;;;4.07;;
36303;SDS011;22335;49.800;8.596;2023-03-13T19:08:09;4.70;;;4.00;;
36303;SDS011;22335;49.800;8.596;2023-03-13T19:14:56;3.72;;;3.53;;
36303;SDS011;22335;49.800;8.596;2023-03-13T19:21:40;4.53;;;3.45;;
36303;SDS011;22335;49.800;8.596;2023-03-13T19:28:25;3.72;;;3.42;;
36303;SDS011;22335;49.800;8.596;2023-03-13T19:35:08;3.50;;;3.28;;
36303;SDS011;22335;49.800;8.596;2023-03-13T19:41:53;3.40;;;3.20;;
36303;SDS011;22335;49.800;8.596;2023-03-13T19:48:40;3.83;;;3.42;;
36303;SDS011;22335;49.800;8.596;2023-03-13T19:55:23;3.58;;;3.30;;
36303;SDS011;22335;49.800;8.596;2023-03-13T20:02:07;3.33;;;3.13;;
36303;SDS011;22335;49.800;8.596;2023-03-13T20:08:54;3.70;;;3.50;;
36303;SDS011;22335;49.800;8.596;2023-03-13T20:15:40;4.03;;;3.80;;
36303;SDS011;22335;49.800;8.596;2023-03-13T20:22:23;3.88;;;3.67;;
36303;SDS011;22335;49.800;8.596;2023-03-13T20:29:08;4.38;;;4.00;;
36303;SDS011;22335;49.800;8.596;2023-03-13T20:35:54;4.10;;;3.70;;
36303;SDS011;22335;49.800;8.596;2023-03-13T20:42:39;3.65;;;3.45;;
36303;SDS011;22335;49.800;8.596;2023-03-13T20:49:24;3.58;;;3.38;;
36303;SDS011;22335;49.800;8.596;2023-03-13T20:56:08;3.85;;;3.55;;
36303;SDS011;22335;49.800;8.596;2023-03-13T21:02:53;3.67;;;3.47;;
36303;SDS011;22335;49.800;8.596;2023-03-13T21:09:38;3.58;;;3.38;;
36303;SDS011;22335;49.800;8.596;2023-03-13T21:16:21;4.32;;;3.92;;
36303;SDS011;22335;49.800;8.596;2023-03-13T21:23:05;4.28;;;4.07;;
36303;SDS011;22335;49.800;8.596;2023-03-13T21:29:50;4.13;;;3.92;;
36303;SDS011;22335;49.800;8.596;2023-03-13T21:36:34;4.00;;;3.78;;
36303;SDS011;22335;49.800;8.596;2023-03-13T21:43:18;4.13;;;3.83;;
36303;SDS011;22335;49.800;8.596;2023-03-13T21:50:06;4.00;;;3.80;;
36303;SDS011;22335;49.800;8.596;2023-03-13T21:56:51;4.63;;;4.40;;
36303;SDS011;22335;49.800;8.596;2023-03-13T22:03:35;4.82;;;4.55;;
36303;SDS011;22335;49.800;8.596;2023-03-13T22:10:20;5.72;;;5.32;;
36303;SDS011;22335;49.800;8.596;2023-03-13T22:17:04;6.05;;;5.72;;
36303;SDS011;22335;49.800;8.596;2023-03-13T22:23:48;5.60;;;5.30;;
36303;SDS011;22335;49.800;8.596;2023-03-13T22:30:33;6.20;;;5.90;;
36303;SDS011;22335;49.800;8.596;2023-03-13T22:37:16;5.45;;;5.05;;
36303;SDS011;22335;49.800;8.596;2023-03-13T22:44:02;5.80;;;5.50;;
36303;SDS011;22335;49.800;8.596;2023-03-13T22:50:46;5.90;;;5.50;;
36303;SDS011;22335;49.800;8.596;2023-03-13T22:57:39;5.90;;;5.60;;
36303;SDS011;22335;49.800;8.596;2023-03-13T23:04:22;6.15;;;5.80;;
36303;SDS011;22335;49.800;8.596;2023-03-13T23:11:07;5.50;;;5.20;;
36303;SDS011;22335;49.800;8.596;2023-03-13T23:17:51;5.65;;;5.25;;
36303;SDS011;22335;49.800;8.596;2023-03-13T23:24:34;5.53;;;5.20;;
36303;SDS011;22335;49.800;8.596;2023-03-13T23:31:20;5.60;;;5.30;;
36303;SDS011;22335;49.800;8.596;2023-03-13T23:38:04;5.93;;;5.53;;
36303;SDS011;22335;49.800;8.596;2023-03-13T23:44:47;6.03;;;5.70;;
36303;SDS011;22335;49.800;8.596;2023-03-13T23:51:32;6.18;;;5.78;;
36303;SDS011;22335;49.800;8.596;2023-03-13T23:58:15;5.90;;;5.50;;
